createdAt,value
2023-02-02T00:01:01.588Z,69.43
2023-02-02T00:03:28.559Z,94.27
2023-02-02T00:05:55.255Z,113.20
2023-02-02T00:08:22.218Z,91.17
2023-02-02T00:10:50.781Z,100.17
2023-02-02T00:13:17.876Z,151.00
2023-02-02T00:15:44.790Z,111.27
2023-02-02T00:18:11.615Z,105.50
2023-02-02T00:20:38.463Z,95.87
2023-02-02T00:23:05.840Z,74.30
2023-02-02T00:25:32.891Z,70.27
2023-02-02T00:27:59.565Z,58.63
2023-02-02T00:30:26.454Z,67.47
2023-02-02T00:32:53.327Z,76.73
2023-02-02T00:35:20.551Z,59.97
2023-02-02T00:37:47.538Z,55.67
2023-02-02T00:40:14.545Z,48.60
2023-02-02T00:42:41.378Z,67.00
2023-02-02T00:45:15.899Z,66.53
2023-02-02T00:47:48.002Z,69.32
2023-02-02T00:50:22.013Z,69.83
2023-02-02T00:52:49.434Z,61.05
2023-02-02T00:55:17.362Z,54.40
2023-02-02T00:57:46.860Z,65.33
2023-02-02T01:00:18.992Z,61.73
2023-02-02T01:02:45.650Z,66.50
2023-02-02T01:05:13.111Z,59.30
2023-02-02T01:07:40.889Z,61.90
2023-02-02T01:10:11.324Z,65.53
2023-02-02T01:12:37.951Z,60.07
2023-02-02T01:15:05.053Z,61.80
2023-02-02T01:17:32.089Z,42.50
2023-02-02T01:20:00.199Z,33.87
2023-02-02T01:22:27.219Z,26.87
2023-02-02T01:24:53.845Z,35.47
2023-02-02T01:27:20.663Z,44.77
2023-02-02T01:29:47.326Z,74.73
2023-02-02T01:32:14.026Z,64.60
2023-02-02T01:34:41.945Z,70.37
2023-02-02T01:37:09.719Z,94.97
2023-02-02T01:39:36.763Z,54.23
2023-02-02T01:42:04.176Z,45.30
2023-02-02T01:44:52.798Z,42.70
2023-02-02T01:47:23.312Z,26.13
2023-02-02T01:49:50.450Z,42.03
2023-02-02T01:52:19.639Z,55.60
2023-02-02T01:54:53.112Z,61.30
2023-02-02T01:57:35.324Z,67.10
2023-02-02T02:00:05.543Z,72.23
2023-02-02T02:02:32.614Z,71.60
2023-02-02T02:05:01.830Z,70.13
2023-02-02T02:07:28.993Z,67.07
2023-02-02T02:09:55.903Z,70.67
2023-02-02T02:12:22.626Z,62.53
2023-02-02T02:15:09.860Z,52.30
2023-02-02T02:17:39.502Z,57.93
2023-02-02T02:20:30.885Z,51.43
2023-02-02T02:23:16.317Z,35.83
2023-02-02T02:26:10.666Z,31.40
2023-02-02T02:29:17.739Z,37.50
2023-02-02T02:32:10.375Z,37.03
2023-02-02T02:35:15.779Z,46.10
2023-02-02T02:37:51.642Z,42.72
2023-02-02T02:40:25.917Z,40.00
2023-02-02T02:42:58.267Z,39.38
2023-02-02T02:45:28.137Z,40.23
2023-02-02T02:47:56.384Z,54.23
2023-02-02T02:50:23.517Z,46.60
2023-02-02T02:53:02.857Z,59.80
2023-02-02T02:55:53.109Z,26.43
2023-02-02T02:58:41.636Z,32.70
2023-02-02T03:01:17.748Z,34.33
2023-02-02T03:03:53.685Z,37.00
2023-02-02T03:06:20.674Z,30.13
2023-02-02T03:09:05.319Z,35.43
2023-02-02T03:11:32.290Z,32.42
2023-02-02T03:13:59.026Z,37.07
2023-02-02T03:16:25.761Z,41.67
2023-02-02T03:18:52.600Z,46.63
2023-02-02T03:21:19.236Z,43.53
2023-02-02T03:23:45.926Z,34.30
2023-02-02T03:26:12.813Z,28.03
2023-02-02T03:28:40.296Z,31.90
2023-02-02T03:31:07.256Z,42.30
2023-02-02T03:33:36.752Z,40.17
2023-02-02T03:36:04.083Z,54.40
2023-02-02T03:38:31.099Z,48.80
2023-02-02T03:40:58.007Z,35.17
2023-02-02T03:43:25.367Z,41.00
2023-02-02T03:46:00.424Z,29.30
2023-02-02T03:48:27.547Z,34.87
2023-02-02T03:50:54.804Z,53.00
2023-02-02T03:53:22.198Z,49.97
2023-02-02T03:55:48.939Z,44.70
2023-02-02T03:58:15.698Z,50.43
2023-02-02T04:00:42.786Z,60.60
2023-02-02T04:03:10.605Z,56.73
2023-02-02T04:05:37.329Z,45.93
2023-02-02T04:08:08.507Z,52.80
2023-02-02T04:10:35.206Z,107.97
2023-02-02T04:13:02.952Z,97.83
2023-02-02T04:15:29.628Z,70.43
2023-02-02T04:17:56.324Z,73.13
2023-02-02T04:20:23.013Z,70.07
2023-02-02T04:22:49.782Z,65.23
2023-02-02T04:25:16.710Z,69.33
2023-02-02T04:27:43.405Z,68.90
2023-02-02T04:30:10.776Z,68.23
2023-02-02T04:32:37.478Z,80.67
2023-02-02T04:35:04.455Z,73.67
2023-02-02T04:37:32.529Z,67.63
2023-02-02T04:39:59.373Z,70.57
2023-02-02T04:42:26.129Z,77.07
2023-02-02T04:44:52.874Z,69.63
2023-02-02T04:47:19.603Z,72.37
2023-02-02T04:49:46.376Z,76.53
2023-02-02T04:52:13.458Z,54.20
2023-02-02T04:54:40.230Z,51.90
2023-02-02T04:57:06.895Z,53.37
2023-02-02T04:59:33.645Z,66.53
2023-02-02T05:02:01.131Z,61.10
2023-02-02T05:04:27.912Z,60.57
2023-02-02T05:06:54.667Z,69.53
2023-02-02T05:09:21.686Z,74.00
2023-02-02T05:11:48.429Z,73.57
2023-02-02T05:14:18.412Z,74.93
2023-02-02T05:16:45.438Z,86.97
2023-02-02T05:19:12.959Z,71.43
2023-02-02T05:21:39.706Z,78.60
2023-02-02T05:24:06.961Z,85.20
2023-02-02T05:26:33.741Z,81.73
2023-02-02T05:29:00.476Z,84.27
2023-02-02T05:31:27.448Z,80.33
2023-02-02T05:33:54.227Z,96.23
2023-02-02T05:36:20.982Z,106.93
2023-02-02T05:38:47.643Z,133.93
2023-02-02T05:41:14.352Z,131.23
2023-02-02T05:43:41.854Z,183.93
2023-02-02T05:46:08.634Z,147.03
2023-02-02T05:48:35.485Z,151.10
2023-02-02T05:51:24.069Z,152.33
2023-02-02T05:53:51.008Z,156.20
2023-02-02T05:56:17.642Z,152.57
2023-02-02T05:58:47.318Z,139.27
2023-02-02T06:01:14.873Z,137.97
2023-02-02T06:03:41.584Z,148.63
2023-02-02T06:06:09.404Z,172.73
2023-02-02T06:08:36.518Z,174.73
2023-02-02T06:11:14.370Z,152.40
2023-02-02T06:13:41.522Z,147.20
2023-02-02T06:16:08.587Z,137.70
2023-02-02T06:18:36.334Z,178.87
2023-02-02T06:21:06.482Z,158.60
2023-02-02T06:23:34.371Z,153.90
2023-02-02T06:26:03.473Z,160.73
2023-02-02T06:28:33.205Z,186.30
2023-02-02T06:31:11.242Z,195.17
2023-02-02T06:33:38.345Z,188.30
2023-02-02T06:36:07.648Z,185.00
2023-02-02T06:38:34.334Z,176.47
2023-02-02T06:41:02.512Z,175.30
2023-02-02T06:43:30.641Z,175.30
2023-02-02T06:45:58.152Z,185.27
2023-02-02T06:48:25.634Z,204.20
2023-02-02T06:50:53.258Z,176.50
2023-02-02T06:53:23.329Z,230.87
2023-02-02T06:55:54.753Z,178.70
2023-02-02T06:58:21.664Z,203.60
2023-02-02T07:00:48.452Z,197.53
2023-02-02T07:03:16.156Z,169.87
2023-02-02T07:05:42.966Z,149.60
2023-02-02T07:08:09.714Z,149.10
2023-02-02T07:11:14.414Z,201.20
2023-02-02T07:13:26.523Z,164.97
2023-02-02T07:15:54.703Z,125.50
2023-02-02T07:18:22.624Z,140.60
2023-02-02T07:20:49.569Z,144.13
2023-02-02T07:23:16.211Z,126.33
2023-02-02T07:25:43.955Z,133.17
2023-02-02T07:28:10.816Z,127.43
2023-02-02T07:30:37.545Z,120.80
2023-02-02T07:33:04.349Z,121.97
2023-02-02T07:35:31.206Z,139.38
2023-02-02T07:37:58.271Z,163.02
2023-02-02T07:40:24.966Z,118.45
2023-02-02T07:42:51.792Z,125.10
2023-02-02T07:45:27.692Z,125.72
2023-02-02T07:47:59.457Z,140.68
2023-02-02T07:50:28.008Z,166.50
2023-02-02T07:52:55.005Z,150.65
2023-02-02T07:55:22.022Z,137.32
2023-02-02T07:57:48.693Z,142.88
2023-02-02T08:00:17.108Z,130.45
2023-02-02T08:02:44.035Z,164.00
2023-02-02T08:05:10.701Z,152.05
2023-02-02T08:07:40.538Z,169.15
2023-02-02T08:10:07.680Z,145.35
2023-02-02T08:12:34.344Z,114.15
2023-02-02T08:15:01.218Z,140.75
2023-02-02T08:17:27.963Z,202.65
2023-02-02T08:19:54.694Z,128.70
2023-02-02T08:22:21.679Z,96.03
2023-02-02T08:24:48.397Z,116.45
2023-02-02T08:27:16.245Z,102.65
2023-02-02T08:29:43.473Z,72.38
2023-02-02T08:32:10.269Z,39.97
2023-02-02T08:34:37.131Z,13.00
2023-02-02T08:37:04.633Z,13.93
2023-02-02T08:39:31.336Z,17.13
2023-02-02T08:41:58.145Z,10.23
2023-02-02T08:44:27.496Z,5.75
2023-02-02T08:47:12.276Z,8.38
2023-02-02T08:49:39.103Z,7.25
2023-02-02T08:52:05.801Z,6.82
2023-02-02T08:54:32.755Z,13.27
2023-02-02T08:56:59.481Z,8.70
2023-02-02T08:59:26.409Z,11.18
2023-02-02T09:01:53.287Z,5.35
2023-02-02T09:04:19.970Z,12.77
2023-02-02T09:06:46.684Z,7.10
2023-02-02T09:09:15.893Z,10.77
2023-02-02T09:11:43.625Z,8.07
2023-02-02T09:14:13.318Z,11.40
2023-02-02T09:16:40.864Z,11.48
2023-02-02T09:19:08.065Z,10.77
2023-02-02T09:21:37.895Z,9.40
2023-02-02T09:24:14.115Z,5.53
2023-02-02T09:26:42.457Z,7.22
2023-02-02T09:29:16.489Z,7.10
2023-02-02T09:31:43.948Z,8.40
2023-02-02T09:34:12.831Z,10.75
2023-02-02T09:36:40.576Z,12.27
2023-02-02T09:39:08.488Z,31.98
2023-02-02T09:41:37.881Z,15.88
2023-02-02T09:44:23.996Z,12.73
2023-02-02T09:47:15.699Z,8.02
2023-02-02T09:50:00.690Z,6.47
2023-02-02T09:52:45.635Z,8.10
2023-02-02T09:55:37.165Z,8.00
2023-02-02T09:58:25.107Z,9.35
2023-02-02T10:01:07.316Z,7.95
2023-02-02T10:03:42.945Z,7.70
2023-02-02T10:06:38.947Z,8.20
2023-02-02T10:09:33.746Z,6.65
2023-02-02T10:12:12.252Z,4.97
2023-02-02T10:15:06.517Z,5.18
2023-02-02T10:17:57.315Z,3.00
2023-02-02T10:20:47.907Z,9.07
2023-02-02T10:23:36.599Z,5.20
2023-02-02T10:26:21.653Z,5.05
2023-02-02T10:28:54.659Z,6.45
2023-02-02T10:31:39.119Z,4.55
2023-02-02T10:34:15.473Z,4.85
2023-02-02T10:37:07.127Z,5.32
2023-02-02T10:40:11.602Z,5.82
2023-02-02T10:43:17.228Z,3.80
2023-02-02T10:45:44.651Z,5.90
2023-02-02T10:48:20.566Z,5.32
2023-02-02T10:50:58.068Z,4.60
2023-02-02T10:53:32.099Z,7.80
2023-02-02T10:56:06.023Z,8.87
2023-02-02T10:58:39.476Z,3.72
2023-02-02T11:01:11.643Z,8.10
2023-02-02T11:03:40.224Z,7.22
2023-02-02T11:06:27.087Z,4.80
2023-02-02T11:08:59.623Z,6.43
2023-02-02T11:11:39.789Z,7.72
2023-02-02T11:14:09.792Z,13.30
2023-02-02T11:16:43.678Z,3.72
2023-02-02T11:19:31.613Z,5.57
2023-02-02T11:22:01.498Z,13.13
2023-02-02T11:25:02.225Z,6.55
2023-02-02T11:27:40.400Z,9.00
2023-02-02T11:30:30.642Z,6.88
2023-02-02T11:32:57.650Z,7.40
2023-02-02T11:35:31.402Z,11.00
2023-02-02T11:38:10.286Z,4.40
2023-02-02T11:40:45.971Z,4.45
2023-02-02T11:43:51.158Z,3.58
2023-02-02T11:46:29.197Z,16.67
2023-02-02T11:49:02.302Z,6.55
2023-02-02T11:51:30.678Z,6.22
2023-02-02T11:54:06.533Z,7.57
2023-02-02T11:56:36.228Z,6.75
2023-02-02T11:59:04.330Z,8.57
2023-02-02T12:01:37.055Z,4.82
2023-02-02T12:04:24.041Z,6.93
2023-02-02T12:06:50.948Z,6.93
2023-02-02T12:09:21.592Z,7.30
2023-02-02T12:12:11.615Z,14.40
2023-02-02T12:15:03.431Z,6.95
2023-02-02T12:17:45.129Z,13.00
2023-02-02T12:20:30.516Z,17.55
2023-02-02T12:23:03.287Z,6.13
2023-02-02T12:26:18.050Z,13.57
2023-02-02T12:28:53.830Z,5.68
2023-02-02T12:31:47.909Z,7.85
2023-02-02T12:34:30.461Z,11.43
2023-02-02T12:37:10.371Z,6.63
2023-02-02T12:39:49.434Z,9.95
2023-02-02T12:42:31.259Z,3.67
2023-02-02T12:45:24.396Z,6.10
2023-02-02T12:48:04.077Z,5.30
2023-02-02T12:50:34.881Z,6.93
2023-02-02T12:53:17.183Z,6.68
2023-02-02T12:56:01.385Z,9.10
2023-02-02T12:58:38.400Z,8.18
2023-02-02T13:01:38.902Z,21.58
2023-02-02T13:04:40.328Z,6.90
2023-02-02T13:07:16.262Z,9.07
2023-02-02T13:10:03.112Z,12.90
2023-02-02T13:12:35.124Z,11.23
2023-02-02T13:15:07.957Z,7.88
2023-02-02T13:17:53.985Z,9.07
2023-02-02T13:20:49.437Z,11.82
2023-02-02T13:23:21.287Z,10.50
2023-02-02T13:25:53.747Z,7.43
2023-02-02T13:28:45.312Z,9.98
2023-02-02T13:31:19.874Z,8.43
2023-02-02T13:33:55.064Z,14.90
2023-02-02T13:36:29.737Z,12.55
2023-02-02T13:39:00.354Z,12.25
2023-02-02T13:41:28.457Z,13.43
2023-02-02T13:43:59.846Z,13.10
2023-02-02T13:46:57.350Z,11.77
2023-02-02T13:49:44.422Z,14.55
2023-02-02T13:52:46.349Z,18.55
2023-02-02T13:55:40.995Z,14.82
2023-02-02T13:58:13.728Z,19.50
2023-02-02T14:00:49.726Z,8.95
2023-02-02T14:03:40.052Z,9.70
2023-02-02T14:06:16.970Z,7.80
2023-02-02T14:08:56.531Z,14.32
2023-02-02T14:11:31.030Z,23.95
2023-02-02T14:14:25.136Z,11.57
2023-02-02T14:16:53.395Z,13.25
2023-02-02T14:19:31.387Z,11.40
2023-02-02T14:22:14.363Z,10.65
2023-02-02T14:24:50.481Z,11.48
2023-02-02T14:27:18.477Z,9.18
2023-02-02T14:29:46.767Z,11.93
2023-02-02T14:32:28.904Z,13.10
2023-02-02T14:35:20.482Z,12.57
2023-02-02T14:37:53.324Z,11.90
2023-02-02T14:40:52.129Z,15.23
2023-02-02T14:43:48.272Z,12.02
2023-02-02T14:46:15.075Z,15.35
2023-02-02T14:48:49.807Z,12.55
2023-02-02T14:51:22.711Z,22.45
2023-02-02T14:53:52.923Z,23.83
2023-02-02T14:56:22.025Z,17.63
2023-02-02T14:58:51.723Z,17.85
2023-02-02T15:01:23.075Z,26.70
2023-02-02T15:04:17.964Z,22.08
2023-02-02T15:06:44.991Z,30.65
2023-02-02T15:09:21.051Z,27.92
2023-02-02T15:12:03.048Z,28.60
2023-02-02T15:14:36.160Z,25.05
2023-02-02T15:17:16.507Z,28.92
2023-02-02T15:19:48.158Z,30.92
2023-02-02T15:22:20.918Z,24.77
2023-02-02T15:24:48.563Z,41.80
2023-02-02T15:27:22.097Z,36.00
2023-02-02T15:29:55.261Z,49.72
2023-02-02T15:32:28.060Z,40.83
2023-02-02T15:35:01.738Z,45.17
2023-02-02T15:37:40.288Z,56.70
2023-02-02T15:40:28.488Z,65.70
2023-02-02T15:43:09.364Z,103.70
2023-02-02T15:45:45.258Z,98.03
2023-02-02T15:48:30.000Z,116.15
2023-02-02T15:51:04.659Z,124.57
2023-02-02T15:53:49.442Z,136.55
2023-02-02T15:56:25.311Z,119.68
2023-02-02T15:58:55.055Z,92.10
2023-02-02T16:01:24.167Z,91.23
2023-02-02T16:04:03.263Z,95.53
2023-02-02T16:06:31.720Z,108.73
2023-02-02T16:08:58.995Z,96.37
2023-02-02T16:11:25.730Z,95.63
2023-02-02T16:14:06.973Z,90.43
2023-02-02T16:16:37.010Z,93.73
2023-02-02T16:19:11.029Z,101.70
2023-02-02T16:22:02.179Z,107.57
2023-02-02T16:24:32.988Z,131.33
2023-02-02T16:27:02.787Z,126.43
2023-02-02T16:29:29.960Z,127.07
2023-02-02T16:31:58.327Z,134.17
2023-02-02T16:34:46.777Z,135.43
2023-02-02T16:37:23.345Z,138.73
2023-02-02T16:39:50.127Z,158.90
2023-02-02T16:42:33.593Z,155.83
2023-02-02T16:45:01.468Z,158.70
2023-02-02T16:47:28.156Z,161.40
2023-02-02T16:50:10.378Z,126.03
2023-02-02T16:52:59.525Z,127.13
2023-02-02T16:55:47.493Z,167.60
2023-02-02T16:58:20.113Z,172.50
2023-02-02T17:01:16.596Z,151.60
2023-02-02T17:03:52.616Z,122.77
2023-02-02T17:06:42.086Z,145.63
2023-02-02T17:09:36.089Z,156.37
2023-02-02T17:12:33.744Z,160.23
2023-02-02T17:15:22.355Z,121.57
2023-02-02T17:17:49.760Z,122.93
2023-02-02T17:20:18.068Z,131.73
2023-02-02T17:22:51.261Z,85.63
2023-02-02T17:25:41.343Z,92.87
2023-02-02T17:28:12.292Z,165.77
2023-02-02T17:30:44.558Z,149.10
2023-02-02T17:33:18.157Z,142.80
2023-02-02T17:35:54.835Z,257.25
2023-02-02T17:38:23.696Z,170.23
2023-02-02T17:40:51.648Z,100.87
2023-02-02T17:43:18.580Z,92.00
2023-02-02T17:45:45.445Z,135.70
2023-02-02T17:48:13.488Z,190.20
2023-02-02T17:50:43.069Z,272.47
2023-02-02T17:53:11.988Z,161.60
2023-02-02T17:55:42.123Z,178.70
2023-02-02T17:58:11.153Z,163.53
2023-02-02T18:00:39.310Z,161.47
2023-02-02T18:03:08.952Z,105.60
2023-02-02T18:05:38.107Z,92.07
2023-02-02T18:08:05.048Z,127.77
2023-02-02T18:10:32.540Z,106.53
2023-02-02T18:12:59.241Z,135.30
2023-02-02T18:15:26.270Z,139.03
2023-02-02T18:17:53.280Z,126.30
2023-02-02T18:20:20.642Z,118.93
2023-02-02T18:22:51.139Z,71.07
2023-02-02T18:25:17.863Z,51.80
2023-02-02T18:27:45.211Z,37.17
2023-02-02T18:30:13.396Z,48.33
2023-02-02T18:32:41.643Z,48.93
2023-02-02T18:35:10.711Z,47.87
2023-02-02T18:37:39.295Z,31.33
2023-02-02T18:40:08.006Z,28.47
2023-02-02T18:42:36.300Z,23.47
2023-02-02T18:45:04.999Z,33.83
2023-02-02T18:47:32.999Z,33.77
2023-02-02T18:49:59.702Z,29.10
2023-02-02T18:52:26.516Z,28.53
2023-02-02T18:54:53.635Z,39.70
2023-02-02T18:57:20.446Z,64.63
2023-02-02T18:59:47.107Z,53.13
2023-02-02T19:02:15.849Z,43.97
2023-02-02T19:05:01.164Z,34.50
2023-02-02T19:07:46.778Z,30.97
2023-02-02T19:10:13.736Z,32.13
2023-02-02T19:12:40.520Z,26.23
2023-02-02T19:15:13.302Z,20.23
2023-02-02T19:17:40.403Z,52.10
2023-02-02T19:20:24.894Z,22.90
2023-02-02T19:22:56.384Z,27.73
2023-02-02T19:25:23.236Z,37.10
2023-02-02T19:27:50.026Z,45.30
2023-02-02T19:30:20.895Z,44.57
2023-02-02T19:32:48.269Z,109.93
2023-02-02T19:35:21.494Z,30.93
2023-02-02T19:37:49.504Z,34.30
2023-02-02T19:40:25.582Z,107.97
2023-02-02T19:43:00.133Z,42.90
2023-02-02T19:45:29.911Z,57.22
2023-02-02T19:47:58.107Z,58.53
2023-02-02T19:50:28.133Z,57.90
2023-02-02T19:52:56.272Z,47.27
2023-02-02T19:55:35.256Z,47.57
2023-02-02T19:58:13.882Z,30.80
2023-02-02T20:00:41.586Z,23.13
2023-02-02T20:03:16.064Z,10.80
2023-02-02T20:05:45.469Z,5.95
2023-02-02T20:08:33.209Z,12.17
2023-02-02T20:11:15.958Z,6.70
2023-02-02T20:13:47.748Z,7.57
2023-02-02T20:16:24.917Z,6.93
2023-02-02T20:18:54.439Z,7.67
2023-02-02T20:21:27.228Z,14.07
2023-02-02T20:23:54.120Z,12.37
2023-02-02T20:26:22.962Z,14.77
2023-02-02T20:28:51.679Z,20.67
2023-02-02T20:31:23.183Z,24.07
2023-02-02T20:33:55.756Z,11.37
2023-02-02T20:36:25.394Z,11.70
2023-02-02T20:38:52.092Z,16.00
2023-02-02T20:41:19.281Z,15.57
2023-02-02T20:43:46.541Z,25.63
2023-02-02T20:46:14.926Z,18.03
2023-02-02T20:48:42.121Z,23.07
2023-02-02T20:51:08.903Z,16.17
2023-02-02T20:53:35.855Z,28.87
2023-02-02T20:56:03.238Z,36.20
2023-02-02T20:58:30.389Z,28.87
2023-02-02T21:00:57.180Z,24.23
2023-02-02T21:03:24.045Z,24.57
2023-02-02T21:05:51.042Z,30.00
2023-02-02T21:08:17.807Z,26.80
2023-02-02T21:10:44.514Z,25.50
2023-02-02T21:13:11.442Z,19.73
2023-02-02T21:15:38.166Z,17.47
2023-02-02T21:18:04.916Z,23.00
2023-02-02T21:20:31.668Z,20.07
2023-02-02T21:22:58.405Z,13.07
2023-02-02T21:25:25.569Z,21.63
2023-02-02T21:27:52.504Z,23.27
2023-02-02T21:30:19.377Z,15.97
2023-02-02T21:32:46.246Z,18.00
2023-02-02T21:35:14.327Z,18.43
2023-02-02T21:37:44.176Z,33.77
2023-02-02T21:40:19.219Z,37.80
2023-02-02T21:42:49.612Z,38.50
2023-02-02T21:45:35.119Z,38.10
2023-02-02T21:48:19.693Z,37.63
2023-02-02T21:50:46.864Z,41.67
2023-02-02T21:53:16.753Z,44.57
2023-02-02T21:55:52.451Z,50.07
2023-02-02T21:58:25.603Z,53.37
2023-02-02T22:00:54.411Z,69.53
2023-02-02T22:03:37.972Z,52.33
2023-02-02T22:06:07.671Z,53.53
2023-02-02T22:08:37.221Z,85.50
2023-02-02T22:11:04.086Z,82.30
2023-02-02T22:13:35.033Z,72.57
2023-02-02T22:16:02.460Z,65.03
2023-02-02T22:18:29.518Z,58.03
2023-02-02T22:20:56.895Z,72.07
2023-02-02T22:23:29.877Z,94.57
2023-02-02T22:25:58.358Z,79.07
2023-02-02T22:28:29.574Z,74.33
2023-02-02T22:30:58.660Z,68.10
2023-02-02T22:33:27.116Z,52.13
2023-02-02T22:35:53.912Z,44.77
2023-02-02T22:38:23.181Z,58.83
2023-02-02T22:40:51.417Z,52.80
2023-02-02T22:43:20.067Z,38.67
2023-02-02T22:45:48.223Z,23.90
2023-02-02T22:48:15.525Z,25.93
2023-02-02T22:50:42.865Z,33.50
2023-02-02T22:53:09.971Z,38.47
2023-02-02T22:55:36.649Z,35.80
2023-02-02T22:58:03.478Z,38.10
2023-02-02T23:00:35.205Z,33.50
2023-02-02T23:03:02.028Z,39.03
2023-02-02T23:05:29.138Z,38.97
2023-02-02T23:07:55.983Z,37.33
2023-02-02T23:10:27.217Z,38.13
2023-02-02T23:12:58.495Z,31.27
2023-02-02T23:15:25.454Z,23.93
2023-02-02T23:17:52.959Z,35.17
2023-02-02T23:20:20.855Z,34.43
2023-02-02T23:22:47.572Z,32.17
2023-02-02T23:25:14.835Z,41.47
2023-02-02T23:27:42.101Z,33.70
2023-02-02T23:30:10.681Z,33.23
2023-02-02T23:32:37.392Z,39.93
2023-02-02T23:35:05.281Z,16.20
2023-02-02T23:37:32.030Z,58.27
2023-02-02T23:39:58.948Z,43.13
2023-02-02T23:42:25.929Z,52.00
2023-02-02T23:44:53.075Z,39.50
2023-02-02T23:47:20.206Z,31.97
2023-02-02T23:49:47.077Z,30.17
2023-02-02T23:52:14.427Z,28.27
2023-02-02T23:54:41.248Z,30.97
2023-02-02T23:57:08.189Z,39.30
2023-02-02T23:59:34.846Z,32.40
